createdAt,value
2024-03-05T00:00:25.600Z,4.90
2024-03-05T00:02:51.995Z,4.90
2024-03-05T00:05:19.763Z,4.91
2024-03-05T00:07:46.977Z,4.84
2024-03-05T00:10:14.338Z,4.84
2024-03-05T00:12:41.437Z,4.82
2024-03-05T00:15:08.364Z,4.76
2024-03-05T00:17:34.830Z,4.72
2024-03-05T00:20:01.402Z,4.70
2024-03-05T00:22:27.878Z,4.70
2024-03-05T00:24:54.398Z,4.64
2024-03-05T00:27:20.824Z,4.63
2024-03-05T00:29:47.569Z,4.57
2024-03-05T00:32:14.060Z,4.40
2024-03-05T00:34:40.579Z,4.41
2024-03-05T00:37:07.158Z,4.46
2024-03-05T00:39:33.750Z,4.48
2024-03-05T00:42:00.149Z,4.50
2024-03-05T00:44:27.698Z,4.51
2024-03-05T00:46:54.455Z,4.49
2024-03-05T00:49:21.668Z,4.47
2024-03-05T00:51:48.730Z,4.48
2024-03-05T00:54:15.403Z,4.40
2024-03-05T00:56:42.272Z,4.39
2024-03-05T00:59:09.482Z,4.29
2024-03-05T01:01:35.958Z,4.23
2024-03-05T01:04:02.459Z,4.24
2024-03-05T01:06:28.947Z,4.27
2024-03-05T01:08:56.706Z,4.26
2024-03-05T01:11:23.179Z,4.26
2024-03-05T01:13:49.632Z,4.23
2024-03-05T01:16:16.348Z,4.10
2024-03-05T01:18:42.950Z,4.06
2024-03-05T01:21:09.568Z,4.09
2024-03-05T01:23:36.035Z,3.95
2024-03-05T01:26:02.486Z,4.05
2024-03-05T01:28:32.229Z,4.00
2024-03-05T01:30:59.985Z,3.90
2024-03-05T01:33:26.846Z,3.73
2024-03-05T01:35:53.978Z,3.72
2024-03-05T01:38:21.986Z,3.82
2024-03-05T01:40:48.839Z,3.92
2024-03-05T01:43:16.381Z,3.96
2024-03-05T01:45:43.739Z,3.93
2024-03-05T01:48:11.545Z,3.91
2024-03-05T01:50:38.748Z,3.91
2024-03-05T01:53:10.671Z,3.90
2024-03-05T01:55:39.489Z,3.89
2024-03-05T01:58:08.950Z,3.87
2024-03-05T02:00:39.649Z,3.88
2024-03-05T02:03:06.934Z,3.90
2024-03-05T02:05:34.163Z,3.89
2024-03-05T02:08:01.554Z,3.90
2024-03-05T02:10:28.296Z,3.88
2024-03-05T02:12:55.939Z,3.84
2024-03-05T02:15:22.374Z,3.82
2024-03-05T02:17:48.762Z,3.84
2024-03-05T02:20:15.314Z,3.80
2024-03-05T02:22:42.853Z,3.80
2024-03-05T02:25:10.640Z,3.73
2024-03-05T02:27:38.135Z,3.73
2024-03-05T02:30:11.436Z,3.74
2024-03-05T02:32:42.754Z,3.70
2024-03-05T02:35:12.470Z,3.67
2024-03-05T02:37:39.914Z,3.69
2024-03-05T02:40:11.327Z,3.65
2024-03-05T02:42:38.456Z,3.60
2024-03-05T02:45:08.720Z,3.53
2024-03-05T02:47:37.373Z,3.47
2024-03-05T02:50:05.004Z,3.33
2024-03-05T02:52:32.377Z,3.17
2024-03-05T02:54:59.124Z,3.26
2024-03-05T02:57:29.158Z,3.36
2024-03-05T02:59:55.595Z,3.40
2024-03-05T03:02:22.383Z,3.45
2024-03-05T03:04:52.381Z,3.42
2024-03-05T03:07:19.896Z,3.34
2024-03-05T03:09:47.634Z,3.29
2024-03-05T03:12:14.264Z,3.29
2024-03-05T03:14:45.361Z,3.33
2024-03-05T03:17:12.385Z,3.32
2024-03-05T03:19:39.076Z,3.33
2024-03-05T03:22:05.932Z,3.34
2024-03-05T03:24:32.488Z,3.27
2024-03-05T03:26:58.860Z,3.32
2024-03-05T03:29:26.578Z,3.34
2024-03-05T03:31:53.138Z,3.25
2024-03-05T03:34:19.619Z,3.25
2024-03-05T03:36:45.997Z,3.30
2024-03-05T03:39:12.754Z,3.25
2024-03-05T03:41:41.861Z,3.16
2024-03-05T03:44:08.464Z,3.13
2024-03-05T03:46:38.358Z,3.16
2024-03-05T03:49:06.610Z,3.12
2024-03-05T03:51:33.975Z,3.10
2024-03-05T03:54:00.535Z,3.10
2024-03-05T03:56:27.349Z,2.98
2024-03-05T03:58:53.812Z,2.97
2024-03-05T04:01:21.811Z,3.09
2024-03-05T04:03:48.635Z,3.16
2024-03-05T04:06:16.029Z,3.29
2024-03-05T04:08:42.539Z,3.34
2024-03-05T04:11:09.164Z,3.42
2024-03-05T04:13:35.920Z,3.45
2024-03-05T04:16:02.493Z,3.48
2024-03-05T04:18:28.879Z,3.52
2024-03-05T04:20:55.537Z,3.53
2024-03-05T04:23:22.779Z,3.50
2024-03-05T04:25:51.413Z,3.53
2024-03-05T04:28:18.391Z,3.60
2024-03-05T04:30:49.433Z,3.68
2024-03-05T04:33:21.246Z,3.73
2024-03-05T04:35:47.763Z,3.75
2024-03-05T04:38:14.185Z,3.84
2024-03-05T04:40:40.664Z,3.89
2024-03-05T04:43:07.072Z,3.90
2024-03-05T04:45:34.921Z,3.92
2024-03-05T04:48:01.948Z,4.00
2024-03-05T04:50:28.378Z,4.04
2024-03-05T04:52:55.213Z,4.09
2024-03-05T04:55:23.156Z,4.11
2024-03-05T04:57:50.067Z,4.09
2024-03-05T05:00:25.139Z,4.03
2024-03-05T05:02:53.063Z,4.15
2024-03-05T05:05:20.948Z,4.20
2024-03-05T05:07:47.890Z,4.19
2024-03-05T05:10:14.667Z,4.18
2024-03-05T05:12:41.500Z,4.16
2024-03-05T05:15:08.652Z,4.19
2024-03-05T05:17:35.481Z,4.22
2024-03-05T05:20:03.929Z,4.28
2024-03-05T05:22:30.650Z,4.30
2024-03-05T05:24:57.454Z,4.35
2024-03-05T05:27:23.876Z,4.36
2024-03-05T05:29:50.845Z,4.42
2024-03-05T05:32:17.900Z,4.47
2024-03-05T05:34:44.715Z,4.52
2024-03-05T05:37:11.207Z,4.56
2024-03-05T05:39:38.165Z,4.60
2024-03-05T05:42:05.800Z,4.59
2024-03-05T05:44:32.210Z,4.57
2024-03-05T05:46:58.644Z,4.56
2024-03-05T05:49:25.241Z,4.50
2024-03-05T05:51:52.374Z,4.50
2024-03-05T05:54:21.801Z,4.47
2024-03-05T05:56:49.845Z,4.47
2024-03-05T05:59:16.821Z,4.47
2024-03-05T06:01:46.205Z,4.48
2024-03-05T06:04:13.168Z,4.54
2024-03-05T06:06:39.804Z,4.60
2024-03-05T06:09:12.170Z,4.56
2024-03-05T06:11:39.312Z,4.54
2024-03-05T06:14:07.352Z,4.56
2024-03-05T06:16:34.133Z,4.62
2024-03-05T06:19:01.426Z,4.69
2024-03-05T06:21:28.020Z,4.74
2024-03-05T06:23:54.433Z,4.77
2024-03-05T06:26:20.940Z,4.83
2024-03-05T06:28:47.433Z,4.89
2024-03-05T06:31:13.925Z,4.91
2024-03-05T06:33:41.731Z,4.95
2024-03-05T06:36:08.234Z,5.01
2024-03-05T06:38:35.847Z,5.06
2024-03-05T06:41:04.200Z,5.07
2024-03-05T06:43:34.580Z,5.09
2024-03-05T06:46:01.430Z,5.12
2024-03-05T06:48:28.281Z,5.14
2024-03-05T06:50:59.394Z,5.13
2024-03-05T06:53:44.528Z,5.14
2024-03-05T06:56:29.926Z,5.16
2024-03-05T06:58:56.674Z,5.23
2024-03-05T07:01:23.595Z,5.27
2024-03-05T07:03:50.151Z,5.30
2024-03-05T07:06:19.678Z,5.34
2024-03-05T07:09:01.230Z,5.37
2024-03-05T07:11:28.838Z,5.43
2024-03-05T07:13:56.714Z,5.50
2024-03-05T07:16:27.962Z,5.52
2024-03-05T07:18:54.940Z,5.55
2024-03-05T07:21:23.459Z,5.57
2024-03-05T07:23:52.114Z,5.63
2024-03-05T07:26:19.610Z,5.69
2024-03-05T07:28:47.123Z,5.73
2024-03-05T07:31:15.695Z,5.78
2024-03-05T07:33:43.192Z,5.82
2024-03-05T07:36:09.873Z,5.84
2024-03-05T07:38:36.567Z,5.90
2024-03-05T07:41:10.985Z,5.96
2024-03-05T07:43:43.885Z,6.01
2024-03-05T07:46:10.484Z,6.02
2024-03-05T07:48:36.888Z,6.06
2024-03-05T07:51:03.483Z,6.12
2024-03-05T07:53:29.948Z,6.13
2024-03-05T07:55:58.391Z,6.14
2024-03-05T07:58:25.355Z,6.19
2024-03-05T08:00:51.871Z,6.22
2024-03-05T08:03:18.339Z,6.31
2024-03-05T08:05:45.714Z,6.37
2024-03-05T08:08:12.096Z,6.41
2024-03-05T08:10:39.853Z,6.46
2024-03-05T08:13:06.329Z,6.56
2024-03-05T08:15:32.858Z,6.64
2024-03-05T08:17:59.938Z,6.68
2024-03-05T08:20:27.798Z,6.71
2024-03-05T08:22:55.958Z,6.76
2024-03-05T08:25:23.547Z,6.76
2024-03-05T08:27:55.414Z,6.78
2024-03-05T08:30:24.013Z,6.80
2024-03-05T08:32:52.549Z,6.75
2024-03-05T08:35:19.865Z,6.76
2024-03-05T08:37:48.389Z,6.79
2024-03-05T08:40:20.634Z,6.78
2024-03-05T08:42:47.803Z,6.81
2024-03-05T08:45:22.200Z,6.79
2024-03-05T08:47:49.866Z,6.78
2024-03-05T08:50:16.828Z,6.78
2024-03-05T08:52:46.648Z,6.74
2024-03-05T08:55:15.327Z,6.73
2024-03-05T08:57:42.628Z,6.76
2024-03-05T09:00:26.832Z,6.76
2024-03-05T09:03:02.376Z,6.75
2024-03-05T09:05:28.759Z,6.77
2024-03-05T09:07:55.488Z,6.78
2024-03-05T09:10:22.121Z,6.81
2024-03-05T09:12:49.829Z,6.87
2024-03-05T09:15:17.436Z,6.91
2024-03-05T09:17:44.291Z,6.95
2024-03-05T09:20:17.102Z,6.97
2024-03-05T09:22:45.974Z,6.99
2024-03-05T09:25:13.831Z,7.01
2024-03-05T09:27:43.358Z,7.05
2024-03-05T09:30:10.846Z,7.06
2024-03-05T09:32:37.443Z,7.09
2024-03-05T09:35:09.885Z,7.14
2024-03-05T09:37:37.300Z,7.18
2024-03-05T09:40:04.418Z,7.21
2024-03-05T09:42:32.823Z,7.26
2024-03-05T09:45:00.405Z,7.33
2024-03-05T09:47:27.737Z,7.37
2024-03-05T09:49:56.705Z,7.40
2024-03-05T09:52:23.719Z,7.46
2024-03-05T09:54:50.171Z,7.48
2024-03-05T09:57:20.548Z,7.54
2024-03-05T09:59:48.101Z,7.62
2024-03-05T10:02:17.263Z,7.71
2024-03-05T10:04:46.839Z,7.74
2024-03-05T10:07:25.224Z,7.76
2024-03-05T10:10:12.616Z,7.79
2024-03-05T10:12:40.677Z,7.81
2024-03-05T10:15:18.847Z,7.83
2024-03-05T10:17:46.076Z,7.88
2024-03-05T10:20:38.018Z,7.90
2024-03-05T10:23:07.549Z,7.87
2024-03-05T10:25:36.095Z,7.90
2024-03-05T10:28:04.495Z,7.98
2024-03-05T10:30:34.240Z,8.03
2024-03-05T10:33:03.056Z,8.02
2024-03-05T10:35:30.754Z,8.01
2024-03-05T10:38:09.980Z,8.05
2024-03-05T10:40:38.062Z,8.08
2024-03-05T10:43:07.328Z,8.13
2024-03-05T10:45:42.362Z,8.08
2024-03-05T10:48:11.572Z,8.09
2024-03-05T10:50:41.613Z,8.15
2024-03-05T10:53:09.665Z,8.19
2024-03-05T10:55:37.898Z,8.29
2024-03-05T10:58:15.137Z,8.33
2024-03-05T11:00:45.115Z,8.37
2024-03-05T11:03:13.443Z,8.42
2024-03-05T11:05:49.711Z,8.44
2024-03-05T11:08:22.059Z,8.47
2024-03-05T11:10:52.959Z,8.49
2024-03-05T11:13:20.739Z,8.46
2024-03-05T11:15:50.433Z,8.39
2024-03-05T11:18:34.314Z,8.40
2024-03-05T11:21:14.545Z,8.38
2024-03-05T11:23:55.635Z,8.40
2024-03-05T11:26:24.253Z,8.40
2024-03-05T11:28:56.400Z,8.40
2024-03-05T11:31:29.087Z,8.43
2024-03-05T11:34:12.353Z,8.43
2024-03-05T11:36:39.135Z,8.48
2024-03-05T11:39:05.633Z,8.48
2024-03-05T11:41:34.435Z,8.46
2024-03-05T11:44:03.920Z,8.45
2024-03-05T11:46:48.440Z,8.43
2024-03-05T11:49:15.727Z,8.42
2024-03-05T11:51:44.267Z,8.40
2024-03-05T11:54:12.788Z,8.37
2024-03-05T11:56:45.685Z,8.34
2024-03-05T11:59:13.443Z,8.34
2024-03-05T12:01:42.469Z,8.32
2024-03-05T12:04:10.963Z,8.33
2024-03-05T12:06:44.463Z,8.33
2024-03-05T12:09:22.150Z,8.30
2024-03-05T12:12:06.943Z,8.27
2024-03-05T12:14:35.458Z,8.28
2024-03-05T12:17:05.171Z,8.28
2024-03-05T12:19:32.607Z,8.28
2024-03-05T12:22:00.651Z,8.30
2024-03-05T12:24:31.289Z,8.31
2024-03-05T12:26:58.922Z,8.32
2024-03-05T12:29:30.233Z,8.34
2024-03-05T12:31:58.246Z,8.37
2024-03-05T12:34:26.822Z,8.40
2024-03-05T12:36:53.394Z,8.39
2024-03-05T12:39:19.929Z,8.41
2024-03-05T12:42:01.722Z,8.42
2024-03-05T12:44:29.568Z,8.43
2024-03-05T12:47:14.672Z,8.44
2024-03-05T12:49:47.139Z,8.44
2024-03-05T12:52:21.262Z,8.38
2024-03-05T12:54:58.114Z,8.36
2024-03-05T12:57:29.540Z,8.39
2024-03-05T12:59:59.350Z,8.35
2024-03-05T13:02:26.158Z,8.37
2024-03-05T13:04:54.646Z,8.39
2024-03-05T13:07:22.655Z,8.42
2024-03-05T13:09:52.082Z,8.40
2024-03-05T13:12:19.887Z,8.41
2024-03-05T13:14:46.310Z,8.43
2024-03-05T13:17:12.756Z,8.43
2024-03-05T13:19:39.339Z,8.45
2024-03-05T13:22:05.821Z,8.48
2024-03-05T13:24:32.423Z,8.51
2024-03-05T13:27:00.768Z,8.54
2024-03-05T13:29:27.489Z,8.58
2024-03-05T13:31:55.233Z,8.59
2024-03-05T13:34:23.678Z,8.58
2024-03-05T13:36:50.477Z,8.58
2024-03-05T13:39:22.979Z,8.60
2024-03-05T13:41:50.109Z,8.59
2024-03-05T13:44:16.545Z,8.61
2024-03-05T13:46:43.013Z,8.62
2024-03-05T13:49:12.365Z,8.66
2024-03-05T13:51:39.098Z,8.69
2024-03-05T13:54:07.413Z,8.69
2024-03-05T13:56:36.218Z,8.65
2024-03-05T13:59:07.829Z,8.63
2024-03-05T14:01:34.498Z,8.60
2024-03-05T14:04:01.017Z,8.56
2024-03-05T14:06:28.626Z,8.54
2024-03-05T14:08:57.497Z,8.55
2024-03-05T14:11:24.054Z,8.52
2024-03-05T14:13:50.589Z,8.53
2024-03-05T14:16:19.013Z,8.57
2024-03-05T14:18:45.837Z,8.58
2024-03-05T14:21:12.456Z,8.56
2024-03-05T14:23:40.448Z,8.52
2024-03-05T14:26:07.773Z,8.53
2024-03-05T14:28:34.601Z,8.52
2024-03-05T14:31:01.859Z,8.54
2024-03-05T14:33:28.230Z,8.56
2024-03-05T14:35:54.644Z,8.54
2024-03-05T14:38:22.100Z,8.57
2024-03-05T14:40:51.035Z,8.59
2024-03-05T14:43:17.797Z,8.57
2024-03-05T14:45:44.263Z,8.59
2024-03-05T14:48:10.735Z,8.61
2024-03-05T14:50:37.313Z,8.60
2024-03-05T14:53:04.016Z,8.59
2024-03-05T14:55:31.213Z,8.59
2024-03-05T14:57:57.734Z,8.59
2024-03-05T15:00:24.556Z,8.59
2024-03-05T15:02:52.218Z,8.59
2024-03-05T15:05:20.235Z,8.60
2024-03-05T15:07:47.349Z,8.61
2024-03-05T15:10:17.048Z,8.62
2024-03-05T15:12:47.260Z,8.62
2024-03-05T15:15:14.635Z,8.63
2024-03-05T15:17:41.746Z,8.65
2024-03-05T15:20:17.254Z,8.66
2024-03-05T15:22:51.412Z,8.66
2024-03-05T15:25:23.916Z,8.66
2024-03-05T15:30:20.548Z,8.65
2024-03-05T15:32:48.756Z,8.63
2024-03-05T15:35:16.721Z,8.64
2024-03-05T15:37:46.224Z,8.62
2024-03-05T15:40:17.435Z,8.62
2024-03-05T15:42:47.362Z,8.61
2024-03-05T15:45:14.655Z,8.61
2024-03-05T15:47:42.864Z,8.59
2024-03-05T15:50:16.861Z,8.58
2024-03-05T15:52:54.525Z,8.58
2024-03-05T15:55:25.892Z,8.57
2024-03-05T15:58:02.739Z,8.58
2024-03-05T16:00:37.280Z,8.60
2024-03-05T16:03:07.979Z,8.58
2024-03-05T16:05:47.354Z,8.58
2024-03-05T16:08:24.989Z,8.54
2024-03-05T16:10:52.872Z,8.53
2024-03-05T16:13:19.623Z,8.54
2024-03-05T16:15:47.380Z,8.53
2024-03-05T16:18:14.619Z,8.51
2024-03-05T16:20:41.337Z,8.51
2024-03-05T16:23:08.830Z,8.48
2024-03-05T16:25:40.299Z,8.46
2024-03-05T16:28:09.182Z,8.46
2024-03-05T16:30:35.951Z,8.47
2024-03-05T16:33:02.423Z,8.46
2024-03-05T16:35:33.685Z,8.44
2024-03-05T16:38:01.253Z,8.43
2024-03-05T16:40:27.836Z,8.42
2024-03-05T16:42:55.912Z,8.40
2024-03-05T16:45:28.557Z,8.40
2024-03-05T16:47:59.382Z,8.40
2024-03-05T16:50:28.146Z,8.39
2024-03-05T16:53:02.001Z,8.40
2024-03-05T16:55:28.849Z,8.40
2024-03-05T16:58:00.634Z,8.40
2024-03-05T17:00:32.020Z,8.39
2024-03-05T17:03:08.689Z,8.35
2024-03-05T17:05:38.122Z,8.34
2024-03-05T17:08:14.987Z,8.34
2024-03-05T17:10:48.401Z,8.32
2024-03-05T17:13:26.320Z,8.30
2024-03-05T17:16:05.278Z,8.28
2024-03-05T17:18:33.235Z,8.26
2024-03-05T17:20:59.871Z,8.23
2024-03-05T17:23:27.974Z,8.22
2024-03-05T17:25:56.804Z,8.21
2024-03-05T17:28:26.576Z,8.16
2024-03-05T17:30:53.166Z,8.14
2024-03-05T17:33:19.636Z,8.14
2024-03-05T17:35:46.398Z,8.15
2024-03-05T17:38:14.464Z,8.12
2024-03-05T17:40:41.705Z,8.10
2024-03-05T17:43:08.362Z,8.12
2024-03-05T17:45:34.926Z,8.12
2024-03-05T17:48:06.761Z,8.13
2024-03-05T17:50:34.139Z,8.13
2024-03-05T17:53:00.581Z,8.12
2024-03-05T17:55:27.070Z,8.12
2024-03-05T17:57:53.612Z,8.09
2024-03-05T18:00:23.452Z,8.09
2024-03-05T18:02:51.762Z,8.08
2024-03-05T18:05:19.737Z,8.08
2024-03-05T18:07:46.954Z,8.06
2024-03-05T18:10:13.876Z,8.03
2024-03-05T18:12:40.924Z,8.00
2024-03-05T18:15:08.641Z,8.00
2024-03-05T18:17:42.088Z,7.98
2024-03-05T18:20:10.061Z,7.96
2024-03-05T18:22:37.038Z,7.95
2024-03-05T18:25:15.448Z,7.93
2024-03-05T18:27:42.829Z,7.94
2024-03-05T18:30:10.965Z,7.94
2024-03-05T18:32:39.212Z,7.93
2024-03-05T18:35:09.867Z,7.92
2024-03-05T18:37:38.531Z,7.91
2024-03-05T18:40:07.995Z,7.87
2024-03-05T18:42:34.500Z,7.87
2024-03-05T18:45:04.615Z,7.85
2024-03-05T18:47:31.080Z,7.82
2024-03-05T18:49:57.708Z,7.77
2024-03-05T18:52:24.174Z,7.76
2024-03-05T18:54:50.880Z,7.76
2024-03-05T18:57:17.464Z,7.73
2024-03-05T18:59:45.041Z,7.74
2024-03-05T19:02:11.568Z,7.71
2024-03-05T19:04:38.112Z,7.72
2024-03-05T19:07:05.001Z,7.70
2024-03-05T19:09:31.656Z,7.72
2024-03-05T19:11:58.304Z,7.72
2024-03-05T19:14:24.766Z,7.71
2024-03-05T19:16:51.258Z,7.71
2024-03-05T19:19:17.726Z,7.68
2024-03-05T19:21:44.913Z,7.67
2024-03-05T19:24:11.300Z,7.65
2024-03-05T19:26:38.435Z,7.66
2024-03-05T19:29:06.489Z,7.64
2024-03-05T19:31:33.199Z,7.63
2024-03-05T19:33:59.672Z,7.64
2024-03-05T19:36:26.347Z,7.63
2024-03-05T19:38:55.603Z,7.61
2024-03-05T19:41:22.676Z,7.61
2024-03-05T19:43:49.324Z,7.60
2024-03-05T19:46:15.931Z,7.61
2024-03-05T19:48:44.040Z,7.61
2024-03-05T19:51:13.932Z,7.62
2024-03-05T19:53:40.352Z,7.64
2024-03-05T19:56:07.207Z,7.62
2024-03-05T19:58:34.146Z,7.63
2024-03-05T20:01:01.761Z,7.60
2024-03-05T20:03:29.074Z,7.61
2024-03-05T20:05:55.681Z,7.60
2024-03-05T20:08:22.173Z,7.59
2024-03-05T20:10:48.847Z,7.57
2024-03-05T20:13:15.321Z,7.57
2024-03-05T20:15:41.832Z,7.56
2024-03-05T20:18:09.441Z,7.56
2024-03-05T20:20:37.469Z,7.54
2024-03-05T20:23:04.255Z,7.52
2024-03-05T20:25:30.831Z,7.53
2024-03-05T20:27:57.422Z,7.51
2024-03-05T20:30:24.215Z,7.51
2024-03-05T20:32:51.706Z,7.49
2024-03-05T20:35:20.031Z,7.45
2024-03-05T20:37:48.792Z,7.42
2024-03-05T20:40:15.954Z,7.43
2024-03-05T20:42:43.902Z,7.44
2024-03-05T20:45:12.574Z,7.41
2024-03-05T20:47:39.846Z,7.38
2024-03-05T20:50:08.975Z,7.35
2024-03-05T20:52:36.399Z,7.36
2024-03-05T20:55:05.042Z,7.35
2024-03-05T20:57:35.108Z,7.33
2024-03-05T21:00:07.408Z,7.35
2024-03-05T21:02:37.820Z,7.34
2024-03-05T21:05:08.933Z,7.33
2024-03-05T21:07:37.069Z,7.33
2024-03-05T21:10:08.340Z,7.34
2024-03-05T21:12:38.362Z,7.32
2024-03-05T21:15:09.502Z,7.32
2024-03-05T21:17:39.822Z,7.34
2024-03-05T21:20:11.422Z,7.34
2024-03-05T21:22:38.856Z,7.36
2024-03-05T21:25:08.882Z,7.38
2024-03-05T21:27:36.321Z,7.39
2024-03-05T21:30:06.980Z,7.41
2024-03-05T21:32:34.429Z,7.37
2024-03-05T21:35:07.844Z,7.38
2024-03-05T21:37:39.158Z,7.39
2024-03-05T21:40:07.256Z,7.41
2024-03-05T21:42:34.415Z,7.39
2024-03-05T21:45:01.594Z,7.40
2024-03-05T21:47:28.264Z,7.42
2024-03-05T21:49:54.777Z,7.40
2024-03-05T21:52:21.260Z,7.39
2024-03-05T21:54:47.668Z,7.40
2024-03-05T21:57:14.170Z,7.41
2024-03-05T21:59:40.588Z,7.42
2024-03-05T22:02:07.800Z,7.40
2024-03-05T22:04:34.612Z,7.40
2024-03-05T22:07:01.196Z,7.38
2024-03-05T22:09:27.649Z,7.40
2024-03-05T22:11:54.119Z,7.42
2024-03-05T22:14:20.750Z,7.45
2024-03-05T22:16:47.490Z,7.45
2024-03-05T22:19:14.247Z,7.45
2024-03-05T22:21:40.811Z,7.46
2024-03-05T22:24:07.967Z,7.48
2024-03-05T22:26:35.220Z,7.47
2024-03-05T22:29:02.069Z,7.43
2024-03-05T22:31:28.892Z,7.43
2024-03-05T22:33:55.752Z,7.41
2024-03-05T22:36:22.311Z,7.40
2024-03-05T22:38:49.644Z,7.37
2024-03-05T22:41:17.673Z,7.33
2024-03-05T22:43:44.705Z,7.31
2024-03-05T22:46:11.413Z,7.28
2024-03-05T22:48:37.950Z,7.23
2024-03-05T22:51:08.064Z,7.18
2024-03-05T22:53:35.527Z,7.12
2024-03-05T22:56:02.065Z,7.08
2024-03-05T22:58:28.668Z,7.01
2024-03-05T23:00:59.447Z,7.00
2024-03-05T23:03:28.886Z,7.02
2024-03-05T23:05:55.893Z,7.00
2024-03-05T23:08:22.516Z,7.02
2024-03-05T23:10:49.282Z,7.05
2024-03-05T23:13:16.169Z,7.08
2024-03-05T23:15:43.314Z,7.09
2024-03-05T23:18:10.113Z,7.11
2024-03-05T23:20:36.647Z,7.11
2024-03-05T23:23:03.165Z,7.12
2024-03-05T23:25:29.648Z,7.11
2024-03-05T23:27:58.534Z,7.11
2024-03-05T23:30:26.736Z,7.12
2024-03-05T23:32:53.941Z,7.11
2024-03-05T23:35:20.793Z,7.11
2024-03-05T23:37:47.459Z,7.08
2024-03-05T23:40:14.873Z,7.05
2024-03-05T23:42:41.586Z,7.04
2024-03-05T23:45:08.493Z,7.03
2024-03-05T23:47:35.252Z,7.00
2024-03-05T23:50:02.853Z,6.95
2024-03-05T23:52:29.536Z,6.87
2024-03-05T23:54:59.083Z,6.80
2024-03-05T23:57:28.637Z,6.74
2024-03-05T23:59:55.412Z,6.68
